Time;durP1;ratioP1;P1;durP2;ratioP2;P2;SDS_P1;SDS_P2;PMS_P1;PMS_P2;Temp;Humidity;BMP_temperature;BMP_pressure;BME280_temperature;BME280_humidity;BME280_pressure;Samples;Min_cycle;Max_cycle;Signal;HPM_P1;HPM_P2
2023/09/01 00:00:12;;;;;;;13.88;5.97;;;13.80;99.90;;;;;;5009194;28;20076;-72
2023/09/01 00:02:39;;;;;;;12.82;5.35;;;13.80;99.90;;;;;;5007524;28;20754;-72
2023/09/01 00:05:05;;;;;;;12.38;6.35;;;13.80;99.90;;;;;;5009761;28;20033;-72
2023/09/01 00:07:31;;;;;;;12.45;6.05;;;13.70;99.90;;;;;;5010119;28;20030;-72
2023/09/01 00:09:56;;;;;;;10.13;5.70;;;13.70;99.90;;;;;;5010222;28;20040;-72
2023/09/01 00:12:22;;;;;;;12.40;5.40;;;13.70;99.90;;;;;;5007883;28;20393;-73
2023/09/01 00:14:47;;;;;;;11.75;5.78;;;13.60;99.90;;;;;;5008344;28;20030;-72
2023/09/01 00:17:14;;;;;;;12.82;5.55;;;13.60;99.90;;;;;;5008378;28;20403;-72
2023/09/01 00:19:40;;;;;;;12.70;5.82;;;13.50;99.90;;;;;;5008774;28;20026;-72
2023/09/01 00:22:05;;;;;;;11.45;5.55;;;13.50;99.90;;;;;;5006250;28;20078;-72
2023/09/01 00:24:32;;;;;;;9.40;5.93;;;13.50;99.90;;;;;;5009621;28;20046;-72
2023/09/01 00:26:58;;;;;;;11.75;5.45;;;13.40;99.90;;;;;;5010199;28;20571;-72
2023/09/01 00:29:24;;;;;;;11.13;6.25;;;13.40;99.90;;;;;;5010709;28;20022;-72
2023/09/01 00:31:50;;;;;;;10.45;7.18;;;13.30;99.90;;;;;;5009979;28;20145;-72
2023/09/01 00:34:15;;;;;;;12.80;6.03;;;13.30;99.90;;;;;;5013865;28;20032;-73
2023/09/01 00:36:41;;;;;;;16.23;7.25;;;13.20;99.90;;;;;;5013396;28;20058;-72
2023/09/01 00:39:07;;;;;;;11.98;6.38;;;13.10;99.90;;;;;;5013654;28;20100;-72
2023/09/01 00:41:32;;;;;;;14.70;7.00;;;13.10;99.90;;;;;;5010280;28;20498;-72
2023/09/01 00:43:58;;;;;;;12.90;6.97;;;13.10;99.90;;;;;;5014637;28;20128;-72
2023/09/01 00:46:24;;;;;;;14.00;8.05;;;13.10;99.90;;;;;;5012223;28;20022;-72
2023/09/01 00:48:49;;;;;;;19.48;8.05;;;13.10;99.90;;;;;;5014630;28;20080;-72
2023/09/01 00:51:15;;;;;;;10.77;7.07;;;13.10;99.90;;;;;;5011844;28;20029;-72
2023/09/01 00:53:41;;;;;;;13.07;6.93;;;13.10;99.90;;;;;;5013323;28;20034;-72
2023/09/01 00:56:07;;;;;;;12.75;6.35;;;13.20;99.90;;;;;;5013643;28;20096;-72
2023/09/01 00:58:32;;;;;;;15.35;7.05;;;13.10;99.90;;;;;;5011797;28;20030;-72
2023/09/01 01:00:58;;;;;;;10.07;7.13;;;13.10;99.90;;;;;;5012629;28;20404;-72
2023/09/01 01:03:25;;;;;;;12.43;6.93;;;13.20;99.90;;;;;;5012220;28;20034;-72
2023/09/01 01:06:09;;;;;;;14.70;7.63;;;13.20;99.90;;;;;;5013644;28;20030;-72
2023/09/01 01:09:08;;;;;;;13.05;6.88;;;13.10;99.90;;;;;;5013009;28;20045;-72
2023/09/01 01:11:44;;;;;;;11.65;7.72;;;13.20;99.90;;;;;;5009300;28;20021;-72
2023/09/01 01:14:15;;;;;;;15.55;6.70;;;13.10;99.90;;;;;;5011480;28;20522;-72
2023/09/01 01:16:41;;;;;;;12.03;6.60;;;13.20;99.90;;;;;;5011532;28;20026;-72
2023/09/01 01:19:38;;;;;;;16.80;7.15;;;13.10;99.90;;;;;;4994139;28;20036;-72
2023/09/01 01:22:05;;;;;;;12.75;6.78;;;13.20;99.90;;;;;;5009399;28;20737;-72
2023/09/01 01:24:32;;;;;;;11.65;7.05;;;13.10;99.90;;;;;;5012292;28;20061;-72
2023/09/01 01:26:58;;;;;;;11.50;6.85;;;13.10;99.90;;;;;;5012839;28;20531;-72
2023/09/01 01:29:25;;;;;;;12.32;7.22;;;13.10;99.90;;;;;;5011688;28;20033;-72
2023/09/01 01:31:52;;;;;;;11.63;6.72;;;13.10;99.90;;;;;;5008971;28;20018;-72
2023/09/01 01:34:31;;;;;;;11.65;6.45;;;13.10;99.90;;;;;;5011474;28;20033;-72
2023/09/01 01:37:33;;;;;;;13.30;6.97;;;13.10;99.90;;;;;;5011736;28;20072;-72
2023/09/01 01:40:04;;;;;;;14.20;6.60;;;13.10;99.90;;;;;;5009432;28;20057;-72
2023/09/01 01:42:33;;;;;;;12.68;6.70;;;13.10;99.90;;;;;;5006277;28;20048;-72
2023/09/01 01:45:00;;;;;;;14.73;6.85;;;13.10;99.90;;;;;;5013452;28;20450;-73
2023/09/01 01:47:26;;;;;;;11.27;6.13;;;13.10;99.90;;;;;;5013087;28;20034;-72
2023/09/01 01:49:52;;;;;;;13.20;7.28;;;13.10;99.90;;;;;;5012572;28;20452;-72
2023/09/01 01:52:17;;;;;;;19.20;6.70;;;13.20;99.90;;;;;;5012600;28;20105;-72
2023/09/01 01:54:43;;;;;;;11.07;6.28;;;13.10;99.90;;;;;;5007379;28;20109;-72
2023/09/01 01:57:14;;;;;;;13.40;6.97;;;13.20;99.90;;;;;;5013464;28;20036;-72
2023/09/01 01:59:42;;;;;;;11.30;7.10;;;13.30;99.90;;;;;;5012425;28;20381;-72
2023/09/01 02:02:08;;;;;;;12.07;7.07;;;13.20;99.90;;;;;;5013080;28;20058;-72
2023/09/01 02:04:33;;;;;;;10.77;6.60;;;13.20;99.90;;;;;;5012487;28;20077;-72
2023/09/01 02:06:59;;;;;;;11.98;7.75;;;13.20;99.90;;;;;;5012855;28;20474;-72
2023/09/01 02:09:26;;;;;;;14.55;7.00;;;13.20;99.90;;;;;;4994713;28;20129;-72
2023/09/01 02:11:52;;;;;;;22.60;8.52;;;13.20;99.90;;;;;;5012993;28;20509;-72
2023/09/01 02:14:18;;;;;;;13.35;7.43;;;13.20;99.90;;;;;;5012657;28;20061;-72
2023/09/01 02:16:44;;;;;;;16.35;7.60;;;13.20;99.90;;;;;;5012535;28;20036;-72
2023/09/01 02:19:11;;;;;;;17.30;8.38;;;13.30;99.90;;;;;;5009223;28;20108;-72
2023/09/01 02:21:37;;;;;;;15.43;8.10;;;13.30;99.90;;;;;;5000978;28;20544;-72
2023/09/01 02:24:02;;;;;;;16.35;7.03;;;13.40;99.90;;;;;;5009489;28;20069;-72
2023/09/01 02:26:28;;;;;;;13.48;8.02;;;13.40;99.90;;;;;;5011116;28;20018;-72
2023/09/01 02:28:54;;;;;;;25.52;8.35;;;13.40;99.90;;;;;;5010537;28;20541;-72
2023/09/01 02:31:19;;;;;;;13.15;7.88;;;13.40;99.90;;;;;;5011300;28;20029;-72
2023/09/01 02:33:45;;;;;;;16.25;8.05;;;13.40;99.90;;;;;;5012100;28;20026;-72
2023/09/01 02:36:30;;;;;;;12.85;8.05;;;13.40;99.90;;;;;;5010059;28;20038;-72
2023/09/01 02:38:57;;;;;;;14.38;7.38;;;13.40;99.90;;;;;;5009267;28;20038;-72
2023/09/01 02:41:23;;;;;;;14.32;7.85;;;13.40;99.90;;;;;;5010865;28;20018;-74
2023/09/01 02:43:49;;;;;;;18.13;8.20;;;13.40;99.90;;;;;;5011142;28;20115;-72
2023/09/01 02:46:14;;;;;;;14.38;7.65;;;13.50;99.90;;;;;;5010683;28;20525;-72
2023/09/01 02:48:40;;;;;;;15.05;7.60;;;13.50;99.90;;;;;;5010947;28;20350;-72
2023/09/01 02:51:06;;;;;;;13.60;7.50;;;13.40;99.90;;;;;;5010415;28;20022;-72
2023/09/01 02:53:33;;;;;;;19.88;9.05;;;13.50;99.90;;;;;;5006296;28;20030;-72
2023/09/01 02:55:59;;;;;;;17.42;8.75;;;13.50;99.90;;;;;;5004696;28;20026;-72
2023/09/01 02:58:25;;;;;;;13.98;8.85;;;13.50;99.90;;;;;;5010691;28;20101;-72
2023/09/01 03:00:51;;;;;;;14.52;8.05;;;13.50;99.90;;;;;;5010133;28;20025;-72
2023/09/01 03:03:19;;;;;;;17.98;7.13;;;13.50;99.90;;;;;;5010100;28;20038;-73
2023/09/01 03:05:45;;;;;;;20.83;8.43;;;13.60;99.90;;;;;;5011563;28;20076;-72
2023/09/01 03:08:11;;;;;;;14.80;8.63;;;13.50;99.90;;;;;;5009509;28;20111;-72
2023/09/01 03:10:38;;;;;;;16.67;8.32;;;13.50;99.90;;;;;;5010654;28;20029;-72
2023/09/01 03:13:04;;;;;;;15.93;9.05;;;13.50;99.90;;;;;;5010407;28;20088;-72
2023/09/01 03:15:30;;;;;;;13.85;7.53;;;13.50;99.90;;;;;;5008297;28;20030;-72
2023/09/01 03:17:56;;;;;;;13.75;7.35;;;13.50;99.90;;;;;;5011183;28;20033;-72
2023/09/01 03:20:23;;;;;;;17.25;9.73;;;13.50;99.90;;;;;;5008025;28;20557;-73
2023/09/01 03:22:49;;;;;;;15.65;8.23;;;13.50;99.90;;;;;;5008132;28;20433;-72
2023/09/01 03:25:14;;;;;;;15.45;9.30;;;13.50;99.90;;;;;;5005087;28;20030;-73
2023/09/01 03:27:40;;;;;;;18.92;8.43;;;13.50;99.90;;;;;;5009779;28;20021;-72
2023/09/01 03:30:07;;;;;;;13.57;8.75;;;13.50;99.90;;;;;;5009472;28;20033;-72
2023/09/01 03:32:33;;;;;;;15.55;8.65;;;13.40;99.90;;;;;;5010154;28;20033;-72
2023/09/01 03:34:59;;;;;;;13.43;8.48;;;13.40;99.90;;;;;;5010263;28;20041;-72
2023/09/01 03:37:24;;;;;;;20.30;9.35;;;13.40;99.90;;;;;;5009355;28;20363;-73
2023/09/01 03:39:50;;;;;;;16.23;9.60;;;13.40;99.90;;;;;;5009179;28;20126;-72
2023/09/01 03:42:16;;;;;;;17.35;9.27;;;13.40;99.90;;;;;;5008720;28;20393;-72
2023/09/01 03:44:42;;;;;;;15.93;9.25;;;13.40;99.90;;;;;;5011217;28;20038;-72
2023/09/01 03:47:09;;;;;;;16.38;9.05;;;13.50;99.90;;;;;;5010749;28;20052;-72
2023/09/01 03:49:34;;;;;;;16.70;9.98;;;13.50;99.90;;;;;;4992884;28;20409;-72
2023/09/01 03:52:00;;;;;;;16.30;8.88;;;13.50;99.90;;;;;;5008641;28;20036;-72
2023/09/01 03:54:25;;;;;;;18.52;9.52;;;13.50;99.90;;;;;;5008951;28;20021;-72
2023/09/01 03:56:51;;;;;;;15.85;9.45;;;13.50;99.90;;;;;;5010828;28;20104;-74
2023/09/01 03:59:17;;;;;;;15.40;9.75;;;13.60;99.90;;;;;;5009853;28;20108;-72
2023/09/01 04:01:45;;;;;;;17.50;8.48;;;13.60;99.90;;;;;;5009387;28;20022;-72
2023/09/01 04:04:11;;;;;;;13.15;8.63;;;13.60;99.90;;;;;;5009446;28;20041;-72
2023/09/01 04:06:41;;;;;;;18.52;9.60;;;13.60;99.90;;;;;;5007805;28;20061;-72
2023/09/01 04:09:08;;;;;;;18.58;10.70;;;13.60;99.90;;;;;;5008664;28;20054;-72
2023/09/01 04:11:34;;;;;;;14.55;9.63;;;13.60;99.90;;;;;;5009064;28;20037;-72
2023/09/01 04:14:00;;;;;;;16.73;8.95;;;13.60;99.90;;;;;;5010715;28;20501;-72
2023/09/01 04:16:26;;;;;;;14.88;8.73;;;13.60;99.90;;;;;;5006594;28;20035;-72
2023/09/01 04:18:51;;;;;;;17.42;9.75;;;13.60;99.90;;;;;;5010362;28;20025;-72
2023/09/01 04:21:17;;;;;;;17.15;9.00;;;13.60;99.90;;;;;;5008843;28;20544;-73
2023/09/01 04:23:43;;;;;;;19.65;8.70;;;13.60;99.90;;;;;;5001871;28;20042;-72
2023/09/01 04:26:09;;;;;;;15.60;9.48;;;13.60;99.90;;;;;;5010842;28;20152;-72
2023/09/01 04:28:34;;;;;;;17.55;9.00;;;13.70;99.90;;;;;;5007758;28;20439;-72
2023/09/01 04:31:02;;;;;;;14.27;8.52;;;13.60;99.90;;;;;;5006925;28;20108;-72
2023/09/01 04:33:28;;;;;;;17.35;8.82;;;13.60;99.90;;;;;;5008724;28;20029;-72
2023/09/01 04:36:00;;;;;;;15.15;8.80;;;13.60;99.90;;;;;;5006155;28;20061;-72
2023/09/01 04:38:25;;;;;;;15.45;8.82;;;13.60;99.90;;;;;;5007336;28;20564;-72
2023/09/01 04:40:58;;;;;;;17.15;9.60;;;13.60;99.90;;;;;;5006980;28;20022;-72
2023/09/01 04:43:26;;;;;;;17.67;9.60;;;13.60;99.90;;;;;;5008345;28;20060;-72
2023/09/01 04:45:56;;;;;;;20.25;9.05;;;13.60;99.90;;;;;;5009837;28;20030;-72
2023/09/01 04:48:21;;;;;;;21.25;9.70;;;13.60;99.90;;;;;;5009467;28;20089;-72
2023/09/01 04:50:47;;;;;;;16.00;8.27;;;13.60;99.90;;;;;;5005251;28;20441;-72
2023/09/01 04:53:13;;;;;;;15.10;9.32;;;13.60;99.90;;;;;;5008384;28;20030;-72
2023/09/01 04:55:39;;;;;;;17.77;10.18;;;13.60;99.90;;;;;;5003508;28;20025;-72
2023/09/01 04:58:04;;;;;;;19.85;10.05;;;13.60;99.90;;;;;;4990717;28;20382;-72
2023/09/01 05:00:30;;;;;;;15.55;9.70;;;13.70;99.90;;;;;;5007663;28;20034;-72
2023/09/01 05:02:56;;;;;;;13.55;9.18;;;13.70;99.90;;;;;;5007170;28;20038;-72
2023/09/01 05:05:21;;;;;;;14.80;8.98;;;13.70;99.90;;;;;;5005780;28;20033;-73
2023/09/01 05:07:47;;;;;;;17.17;9.13;;;13.80;99.90;;;;;;5004535;28;20394;-74
2023/09/01 05:10:12;;;;;;;15.13;8.45;;;13.80;99.90;;;;;;5003468;28;20052;-72
2023/09/01 05:12:38;;;;;;;15.30;8.75;;;13.90;99.90;;;;;;4995633;28;20030;-72
2023/09/01 05:15:04;;;;;;;21.27;9.80;;;13.90;99.90;;;;;;5009999;28;20076;-72
2023/09/01 05:17:30;;;;;;;19.92;9.45;;;14.00;99.90;;;;;;5013632;28;20482;-72
2023/09/01 05:19:57;;;;;;;17.90;8.50;;;14.00;99.90;;;;;;5014330;28;20030;-73
2023/09/01 05:22:23;;;;;;;15.20;8.77;;;14.10;99.90;;;;;;5011111;28;20100;-71
2023/09/01 05:24:49;;;;;;;16.00;8.07;;;14.20;99.90;;;;;;5012027;28;20030;-72
2023/09/01 05:27:18;;;;;;;13.55;9.10;;;14.20;99.90;;;;;;4991559;28;20122;-72
2023/09/01 05:29:44;;;;;;;12.85;7.75;;;14.20;99.90;;;;;;5012115;28;20032;-72
2023/09/01 05:32:09;;;;;;;18.52;8.07;;;14.30;99.90;;;;;;5003354;28;20460;-72
2023/09/01 05:34:35;;;;;;;16.92;8.20;;;14.30;99.90;;;;;;5013794;28;20473;-72
2023/09/01 05:37:00;;;;;;;16.10;7.80;;;14.40;99.90;;;;;;5010466;28;20121;-72
2023/09/01 05:39:26;;;;;;;19.08;7.55;;;14.50;99.90;;;;;;5009162;28;20038;-72
2023/09/01 05:41:51;;;;;;;16.38;8.90;;;14.50;99.90;;;;;;5005091;28;20034;-72
2023/09/01 05:44:18;;;;;;;13.77;7.88;;;14.60;99.90;;;;;;5004850;28;20061;-72
2023/09/01 05:46:43;;;;;;;11.18;6.80;;;14.60;99.90;;;;;;5013970;28;20026;-72
2023/09/01 05:49:09;;;;;;;16.13;8.38;;;14.60;99.90;;;;;;5004751;28;20401;-72
2023/09/01 05:51:35;;;;;;;15.55;7.43;;;14.60;99.90;;;;;;4988843;28;20040;-72
2023/09/01 05:54:00;;;;;;;13.75;6.70;;;14.70;99.90;;;;;;5014583;28;20049;-72
2023/09/01 05:56:25;;;;;;;13.88;6.72;;;14.80;99.90;;;;;;5010952;28;20076;-72
2023/09/01 05:58:51;;;;;;;15.20;7.13;;;14.80;99.90;;;;;;5013097;28;20036;-71
2023/09/01 06:01:16;;;;;;;17.80;7.80;;;14.90;99.90;;;;;;5010854;28;20037;-72
2023/09/01 06:03:42;;;;;;;16.15;8.02;;;14.80;99.90;;;;;;5012973;28;20065;-72
2023/09/01 06:06:08;;;;;;;15.00;6.72;;;14.90;99.90;;;;;;5017637;22;20109;-72
2023/09/01 06:08:33;;;;;;;15.20;6.22;;;14.90;99.90;;;;;;5002972;28;20095;-72
2023/09/01 06:11:03;;;;;;;11.27;6.55;;;15.00;99.90;;;;;;5000471;28;20030;-72
2023/09/01 06:13:29;;;;;;;12.07;6.05;;;15.00;99.90;;;;;;5012331;28;20048;-72
2023/09/01 06:15:54;;;;;;;13.40;6.30;;;15.10;99.90;;;;;;5013081;28;20018;-72
2023/09/01 06:18:20;;;;;;;9.38;5.88;;;15.10;99.90;;;;;;5010096;28;20040;-72
2023/09/01 06:20:45;;;;;;;12.05;5.60;;;15.20;99.90;;;;;;5010675;28;20084;-72
2023/09/01 06:23:11;;;;;;;11.20;5.85;;;15.30;99.90;;;;;;5012241;28;20038;-72
2023/09/01 06:25:36;;;;;;;12.40;5.45;;;15.30;99.90;;;;;;5012547;28;20045;-72
2023/09/01 06:28:02;;;;;;;9.60;4.90;;;15.50;99.90;;;;;;5009212;28;20018;-72
2023/09/01 06:30:28;;;;;;;10.77;6.13;;;15.60;99.90;;;;;;5011622;28;20088;-72
2023/09/01 06:32:53;;;;;;;9.15;4.80;;;15.60;99.90;;;;;;5007871;28;20374;-72
2023/09/01 06:35:19;;;;;;;8.90;5.30;;;15.70;99.90;;;;;;5001035;28;20037;-72
2023/09/01 06:37:44;;;;;;;10.00;5.05;;;15.70;99.90;;;;;;4993541;28;20109;-72
2023/09/01 06:40:10;;;;;;;11.50;4.78;;;15.80;99.90;;;;;;5006234;28;20093;-72
2023/09/01 06:42:36;;;;;;;10.48;4.70;;;15.90;99.90;;;;;;5010811;28;20057;-72
2023/09/01 06:45:01;;;;;;;9.45;4.93;;;15.90;99.90;;;;;;5012399;28;20140;-72
2023/09/01 06:47:27;;;;;;;13.48;5.85;;;16.00;99.90;;;;;;5008118;28;20026;-72
2023/09/01 06:49:52;;;;;;;11.35;4.90;;;16.00;99.90;;;;;;5009846;28;20039;-73
2023/09/01 06:52:18;;;;;;;10.13;4.72;;;16.10;99.90;;;;;;5008021;28;20034;-73
2023/09/01 06:54:43;;;;;;;10.85;4.80;;;16.10;99.90;;;;;;5011480;28;20026;-72
2023/09/01 06:57:09;;;;;;;8.30;4.43;;;16.10;99.90;;;;;;5012503;28;20065;-72
2023/09/01 06:59:34;;;;;;;10.35;4.88;;;16.20;99.90;;;;;;5011136;28;20106;-72
2023/09/01 07:02:00;;;;;;;12.25;5.30;;;16.20;99.90;;;;;;5009531;28;20034;-72
2023/09/01 07:04:26;;;;;;;12.77;5.40;;;16.30;99.90;;;;;;4997864;28;20042;-74
2023/09/01 07:06:51;;;;;;;9.00;4.93;;;16.40;99.90;;;;;;5002884;28;20416;-72
2023/09/01 07:09:18;;;;;;;10.93;5.25;;;16.40;99.90;;;;;;4992127;28;20486;-72
2023/09/01 07:11:43;;;;;;;9.10;4.55;;;16.50;99.90;;;;;;5024022;28;20024;-72
2023/09/01 07:14:09;;;;;;;8.52;4.78;;;16.50;99.90;;;;;;5024365;28;20030;-72
2023/09/01 07:16:34;;;;;;;9.02;4.25;;;16.70;99.90;;;;;;5012034;28;20025;-72
2023/09/01 07:19:00;;;;;;;8.63;4.80;;;16.70;99.90;;;;;;5007689;28;20030;-72
2023/09/01 07:21:26;;;;;;;9.57;4.50;;;16.80;99.90;;;;;;5002590;28;20029;-73
2023/09/01 07:23:52;;;;;;;9.25;4.97;;;16.80;99.90;;;;;;5004690;28;21368;-73
2023/09/01 07:26:17;;;;;;;9.35;4.82;;;16.90;99.90;;;;;;4994168;28;20022;-73
2023/09/01 07:28:43;;;;;;;7.43;4.85;;;16.90;99.90;;;;;;5007022;28;20494;-73
2023/09/01 07:31:12;;;;;;;8.18;5.40;;;17.00;99.90;;;;;;5006842;28;20038;-73
2023/09/01 07:33:41;;;;;;;13.30;5.18;;;17.10;99.90;;;;;;4988170;28;20386;-72
2023/09/01 07:36:12;;;;;;;8.80;4.55;;;17.30;99.90;;;;;;5003142;28;20026;-72
2023/09/01 07:38:38;;;;;;;10.50;5.38;;;17.40;99.90;;;;;;4992659;28;20069;-73
2023/09/01 07:41:04;;;;;;;7.65;4.32;;;17.50;99.90;;;;;;4988620;28;20033;-72
2023/09/01 07:43:31;;;;;;;8.75;4.15;;;17.60;99.90;;;;;;5009753;28;20034;-73
2023/09/01 07:45:57;;;;;;;8.10;4.53;;;17.70;99.90;;;;;;5008466;28;20026;-73
2023/09/01 07:48:22;;;;;;;7.07;4.90;;;17.80;99.90;;;;;;5011097;28;20033;-73
2023/09/01 07:50:49;;;;;;;10.07;4.65;;;18.00;99.90;;;;;;5002910;28;20039;-72
2023/09/01 07:53:15;;;;;;;9.57;5.43;;;18.00;99.90;;;;;;5008444;28;20029;-73
2023/09/01 07:55:41;;;;;;;8.20;5.72;;;18.00;99.90;;;;;;5009717;28;20033;-73
2023/09/01 07:58:06;;;;;;;9.32;4.95;;;18.10;99.90;;;;;;5010873;28;20053;-73
2023/09/01 08:00:32;;;;;;;7.80;4.93;;;18.10;99.90;;;;;;5011165;28;20062;-72
2023/09/01 08:02:58;;;;;;;9.02;4.55;;;18.10;99.90;;;;;;5010360;28;20022;-72
2023/09/01 08:05:23;;;;;;;6.88;4.85;;;18.10;99.90;;;;;;5009957;28;20037;-72
2023/09/01 08:07:51;;;;;;;8.93;5.35;;;18.20;99.90;;;;;;4997458;28;20426;-72
2023/09/01 08:10:17;;;;;;;11.07;5.45;;;18.30;99.90;;;;;;5009504;28;20033;-73
2023/09/01 08:12:43;;;;;;;9.27;5.70;;;18.30;99.90;;;;;;5011037;28;20026;-72
2023/09/01 08:15:09;;;;;;;8.88;5.63;;;18.40;99.90;;;;;;5007653;28;20474;-72
2023/09/01 08:17:34;;;;;;;8.35;5.50;;;18.40;99.90;;;;;;5002597;28;20125;-72
2023/09/01 08:20:02;;;;;;;7.93;5.18;;;18.50;99.90;;;;;;5007014;28;20029;-72
2023/09/01 08:22:27;;;;;;;9.55;5.07;;;18.50;99.90;;;;;;4999735;28;20026;-72
2023/09/01 08:24:53;;;;;;;9.48;5.43;;;18.60;99.90;;;;;;5007721;28;20034;-72
2023/09/01 08:27:18;;;;;;;13.30;6.75;;;18.80;99.90;;;;;;4995092;28;20031;-73
2023/09/01 08:29:45;;;;;;;8.63;6.38;;;18.80;99.90;;;;;;5009212;28;20033;-72
2023/09/01 08:32:11;;;;;;;10.88;6.80;;;18.90;99.90;;;;;;4993749;28;20038;-72
2023/09/01 08:34:37;;;;;;;11.43;6.38;;;18.80;99.90;;;;;;4992637;28;20033;-72
2023/09/01 08:37:03;;;;;;;9.48;5.68;;;18.80;99.90;;;;;;4988867;28;20042;-73
2023/09/01 08:39:29;;;;;;;11.25;6.03;;;18.70;99.90;;;;;;4999551;28;20037;-72
2023/09/01 08:41:55;;;;;;;10.85;6.43;;;18.70;99.90;;;;;;5004418;28;20026;-73
2023/09/01 08:44:25;;;;;;;11.13;6.47;;;18.60;99.90;;;;;;5001259;28;20031;-72
2023/09/01 08:46:57;;;;;;;12.07;5.97;;;18.60;99.90;;;;;;5000593;28;20458;-72
2023/09/01 08:49:24;;;;;;;10.77;7.07;;;18.50;99.90;;;;;;5008892;28;20026;-73
2023/09/01 08:51:53;;;;;;;8.25;6.05;;;18.50;99.90;;;;;;5012668;28;20033;-72
2023/09/01 08:54:19;;;;;;;9.00;6.03;;;18.50;99.90;;;;;;5013859;28;20060;-73
2023/09/01 08:56:44;;;;;;;7.05;5.78;;;18.40;99.90;;;;;;5009340;28;20054;-72
2023/09/01 08:59:10;;;;;;;11.15;7.72;;;18.40;99.90;;;;;;5012378;28;20044;-72
2023/09/01 09:01:37;;;;;;;8.55;6.32;;;18.30;99.90;;;;;;5013750;28;20457;-72
2023/09/01 09:04:06;;;;;;;10.05;6.82;;;18.30;99.90;;;;;;5008655;28;20418;-73
2023/09/01 09:06:38;;;;;;;9.27;6.63;;;18.40;99.90;;;;;;5008538;28;20429;-72
2023/09/01 09:09:11;;;;;;;8.68;7.18;;;18.40;99.90;;;;;;5010078;28;20038;-73
2023/09/01 09:11:38;;;;;;;9.30;7.32;;;18.40;99.90;;;;;;5007200;28;20505;-72
2023/09/01 09:14:04;;;;;;;9.52;6.97;;;18.40;99.90;;;;;;5010106;28;20478;-72
2023/09/01 09:16:30;;;;;;;11.50;7.88;;;18.50;99.90;;;;;;5010511;28;20085;-73
2023/09/01 09:18:55;;;;;;;15.02;8.50;;;18.50;99.90;;;;;;4995479;28;20018;-73
2023/09/01 09:21:28;;;;;;;11.70;8.98;;;18.40;99.90;;;;;;5012471;28;20080;-73
2023/09/01 09:23:59;;;;;;;12.30;8.40;;;18.40;99.90;;;;;;5013105;28;20370;-72
2023/09/01 09:26:29;;;;;;;11.57;7.97;;;18.40;99.90;;;;;;5009263;28;20500;-73
2023/09/01 09:28:55;;;;;;;12.35;8.48;;;18.30;99.90;;;;;;5012419;28;20037;-72
2023/09/01 09:31:33;;;;;;;14.25;7.82;;;18.30;99.90;;;;;;5012336;28;20065;-72
2023/09/01 09:34:18;;;;;;;15.15;8.77;;;18.30;99.90;;;;;;5007105;28;20038;-72
2023/09/01 09:36:48;;;;;;;11.13;6.95;;;18.30;99.90;;;;;;5009078;28;20022;-72
2023/09/01 09:39:30;;;;;;;10.93;7.53;;;18.40;99.90;;;;;;4997590;28;20029;-72
2023/09/01 09:41:59;;;;;;;11.57;7.27;;;18.40;99.90;;;;;;5008764;28;20061;-72
2023/09/01 09:44:31;;;;;;;10.05;7.32;;;18.40;99.90;;;;;;5006634;28;20033;-73
2023/09/01 09:46:57;;;;;;;10.43;7.28;;;18.40;99.90;;;;;;4992123;28;20037;-73
2023/09/01 09:49:24;;;;;;;8.93;6.43;;;18.40;99.90;;;;;;5004453;28;20042;-73
2023/09/01 09:51:51;;;;;;;9.27;6.47;;;18.50;99.90;;;;;;5001951;28;20412;-73
2023/09/01 09:54:19;;;;;;;9.60;6.55;;;18.50;99.90;;;;;;5011557;28;20025;-73
2023/09/01 09:56:51;;;;;;;10.05;7.00;;;18.50;99.90;;;;;;5010192;28;20026;-73
2023/09/01 09:59:45;;;;;;;11.38;7.15;;;18.50;99.90;;;;;;5011705;28;20018;-74
2023/09/01 10:02:27;;;;;;;9.80;6.65;;;18.40;99.90;;;;;;5010969;28;20040;-73
2023/09/01 10:04:54;;;;;;;8.88;7.05;;;18.30;99.90;;;;;;5003014;28;20030;-73
2023/09/01 10:07:22;;;;;;;12.00;7.60;;;18.30;99.90;;;;;;5010531;28;20377;-74
2023/09/01 10:09:48;;;;;;;13.30;8.40;;;18.20;99.90;;;;;;5009615;28;20057;-74
2023/09/01 10:12:15;;;;;;;10.85;7.05;;;18.20;99.90;;;;;;5012486;28;20088;-73
2023/09/01 10:14:42;;;;;;;9.60;6.15;;;18.10;99.90;;;;;;5013705;28;20032;-73
2023/09/01 10:17:10;;;;;;;8.75;6.93;;;18.10;99.90;;;;;;5013574;28;20025;-73
2023/09/01 10:19:35;;;;;;;11.32;7.05;;;18.10;99.90;;;;;;5009973;28;20041;-73
2023/09/01 10:22:01;;;;;;;11.55;7.90;;;18.10;99.90;;;;;;5010394;28;20030;-73
2023/09/01 10:24:26;;;;;;;9.57;5.95;;;18.00;99.90;;;;;;5005446;28;20034;-73
2023/09/01 10:27:10;;;;;;;8.35;6.32;;;17.90;99.90;;;;;;5011969;28;20386;-73
2023/09/01 10:29:36;;;;;;;7.95;5.97;;;17.90;99.90;;;;;;5012723;28;20037;-73
2023/09/01 10:32:16;;;;;;;7.88;5.93;;;17.80;99.90;;;;;;5011280;28;20386;-73
2023/09/01 10:34:53;;;;;;;9.00;6.38;;;17.80;99.90;;;;;;5010632;28;20497;-74
2023/09/01 10:37:27;;;;;;;7.28;5.78;;;17.80;99.90;;;;;;5011217;28;20565;-73
2023/09/01 10:39:54;;;;;;;8.05;5.95;;;17.80;99.90;;;;;;4996772;28;20042;-73
2023/09/01 10:42:39;;;;;;;10.20;6.47;;;17.70;99.90;;;;;;5007111;28;20548;-74
2023/09/01 10:45:07;;;;;;;6.97;5.35;;;17.80;99.90;;;;;;4994534;28;20129;-73
2023/09/01 10:47:43;;;;;;;6.90;6.03;;;17.70;99.90;;;;;;5005735;28;23134;-73
2023/09/01 10:50:12;;;;;;;6.75;5.47;;;17.80;99.90;;;;;;5009335;28;20363;-73
2023/09/01 10:52:37;;;;;;;9.40;6.25;;;17.80;99.90;;;;;;5001287;28;20092;-73
2023/09/01 10:55:05;;;;;;;7.38;5.20;;;17.80;99.90;;;;;;5008441;28;20038;-73
2023/09/01 10:57:42;;;;;;;8.88;5.93;;;17.80;99.90;;;;;;5008679;28;20021;-73
2023/09/01 11:00:30;;;;;;;7.47;5.57;;;17.90;99.90;;;;;;5011916;28;20033;-73
2023/09/01 11:03:24;;;;;;;7.47;6.28;;;18.00;99.90;;;;;;5012476;28;20022;-73
2023/09/01 11:05:57;;;;;;;7.10;5.35;;;18.10;99.90;;;;;;5012984;28;20038;-73
2023/09/01 11:08:25;;;;;;;7.07;5.00;;;18.20;99.90;;;;;;5011780;28;20118;-73
2023/09/01 11:10:55;;;;;;;8.35;5.70;;;18.30;99.90;;;;;;5012385;28;20018;-73
2023/09/01 11:13:22;;;;;;;8.10;5.65;;;18.40;99.90;;;;;;5011344;28;20441;-73
2023/09/01 11:15:50;;;;;;;7.15;5.78;;;18.50;99.90;;;;;;5008601;28;20022;-73
2023/09/01 11:18:20;;;;;;;6.50;5.20;;;18.50;99.90;;;;;;5011867;28;20033;-73
2023/09/01 11:20:54;;;;;;;6.78;5.63;;;18.60;99.90;;;;;;5012251;28;20026;-74
2023/09/01 11:23:24;;;;;;;6.07;5.47;;;18.60;99.90;;;;;;5011775;28;20037;-74
2023/09/01 11:25:58;;;;;;;6.00;5.07;;;18.60;99.90;;;;;;5012382;28;20401;-73
2023/09/01 11:28:28;;;;;;;6.13;5.07;;;18.60;99.90;;;;;;5011673;28;20470;-73
2023/09/01 11:30:59;;;;;;;6.38;5.78;;;18.60;99.90;;;;;;5011770;28;20462;-73
2023/09/01 11:33:25;;;;;;;6.50;5.90;;;18.60;99.90;;;;;;5011098;28;20104;-73
2023/09/01 11:36:10;;;;;;;8.48;5.22;;;18.70;99.90;;;;;;5012090;28;20061;-73
2023/09/01 11:38:35;;;;;;;8.35;5.47;;;18.80;99.90;;;;;;5011782;28;20363;-73
2023/09/01 11:41:05;;;;;;;7.05;5.88;;;18.80;99.90;;;;;;5012113;28;20064;-73
2023/09/01 11:43:31;;;;;;;6.57;5.75;;;18.80;99.90;;;;;;5011207;28;20516;-73
2023/09/01 11:45:56;;;;;;;9.18;6.30;;;18.80;99.90;;;;;;5011726;28;20065;-73
2023/09/01 11:48:26;;;;;;;9.73;6.70;;;18.90;99.90;;;;;;5004384;28;20030;-73
2023/09/01 11:50:57;;;;;;;7.55;5.60;;;18.90;99.90;;;;;;5010899;28;20108;-73
2023/09/01 11:53:27;;;;;;;9.55;6.00;;;19.00;99.90;;;;;;4993872;28;20052;-73
2023/09/01 11:56:01;;;;;;;6.43;5.70;;;19.00;99.90;;;;;;5006899;28;20014;-73
2023/09/01 11:58:45;;;;;;;7.05;5.55;;;19.00;99.90;;;;;;5011235;28;20026;-73
2023/09/01 12:01:12;;;;;;;6.97;5.55;;;19.20;99.90;;;;;;5001891;28;20022;-73
2023/09/01 12:03:38;;;;;;;5.22;4.72;;;19.20;99.90;;;;;;5010998;28;20041;-73
2023/09/01 12:06:23;;;;;;;8.48;5.70;;;19.30;99.90;;;;;;5010052;28;20026;-73
2023/09/01 12:08:51;;;;;;;10.18;5.75;;;19.40;99.90;;;;;;5011758;28;20032;-73
2023/09/01 12:11:17;;;;;;;7.35;5.45;;;19.40;99.90;;;;;;5011055;28;20033;-74
2023/09/01 12:13:43;;;;;;;5.25;4.75;;;19.50;99.90;;;;;;5011304;28;20022;-73
2023/09/01 12:16:23;;;;;;;6.30;5.63;;;19.70;99.90;;;;;;4993805;28;20034;-73
2023/09/01 12:18:49;;;;;;;6.65;4.80;;;19.90;99.90;;;;;;5011527;28;20660;-73
2023/09/01 12:21:15;;;;;;;6.20;4.63;;;20.10;99.90;;;;;;5011427;28;20053;-73
2023/09/01 12:23:43;;;;;;;5.30;4.18;;;20.40;99.90;;;;;;5003801;28;20038;-73
2023/09/01 12:26:08;;;;;;;5.05;4.47;;;20.70;99.90;;;;;;5014563;28;20033;-73
2023/09/01 12:28:36;;;;;;;6.03;4.72;;;21.00;99.90;;;;;;5014997;28;20504;-73
2023/09/01 12:31:04;;;;;;;5.65;4.00;;;21.30;99.90;;;;;;5015369;28;20417;-74
2023/09/01 12:33:30;;;;;;;5.15;3.78;;;21.40;99.90;;;;;;5014895;28;20026;-73
2023/09/01 12:35:56;;;;;;;3.80;3.50;;;21.70;99.90;;;;;;5015522;28;20385;-73
2023/09/01 12:38:22;;;;;;;4.65;4.18;;;22.00;99.90;;;;;;5014627;28;20033;-74
2023/09/01 12:40:48;;;;;;;4.45;4.05;;;22.20;99.90;;;;;;5013984;28;20037;-73
2023/09/01 12:43:14;;;;;;;4.28;3.15;;;22.30;99.90;;;;;;5015140;28;20352;-74